sensor_id;sensor_type;location;lat;lon;timestamp;P1;durP1;ratioP1;P2;durP2;ratioP2
62848;SDS011;48941;49.516;8.286;2023-04-29T00:00:52;6.30;;;3.78;;
62848;SDS011;48941;49.516;8.286;2023-04-29T00:03:20;4.47;;;4.05;;
62848;SDS011;48941;49.516;8.286;2023-04-29T00:05:48;4.30;;;3.90;;
62848;SDS011;48941;49.516;8.286;2023-04-29T00:08:16;4.90;;;3.75;;
62848;SDS011;48941;49.516;8.286;2023-04-29T00:10:44;5.00;;;4.07;;
62848;SDS011;48941;49.516;8.286;2023-04-29T00:13:12;4.40;;;3.58;;
62848;SDS011;48941;49.516;8.286;2023-04-29T00:15:40;4.00;;;3.60;;
62848;SDS011;48941;49.516;8.286;2023-04-29T00:18:09;6.85;;;3.50;;
62848;SDS011;48941;49.516;8.286;2023-04-29T00:20:39;3.72;;;3.40;;
62848;SDS011;48941;49.516;8.286;2023-04-29T00:23:08;5.97;;;3.40;;
62848;SDS011;48941;49.516;8.286;2023-04-29T00:25:36;4.60;;;3.88;;
62848;SDS011;48941;49.516;8.286;2023-04-29T00:28:04;4.97;;;4.13;;
62848;SDS011;48941;49.516;8.286;2023-04-29T00:30:32;8.75;;;4.32;;
62848;SDS011;48941;49.516;8.286;2023-04-29T00:33:00;7.38;;;4.18;;
62848;SDS011;48941;49.516;8.286;2023-04-29T00:35:29;5.13;;;4.32;;
62848;SDS011;48941;49.516;8.286;2023-04-29T00:37:57;6.57;;;3.80;;
62848;SDS011;48941;49.516;8.286;2023-04-29T00:40:26;5.68;;;3.72;;
62848;SDS011;48941;49.516;8.286;2023-04-29T00:42:54;6.85;;;4.25;;
62848;SDS011;48941;49.516;8.286;2023-04-29T00:45:22;7.13;;;4.13;;
62848;SDS011;48941;49.516;8.286;2023-04-29T00:47:50;8.85;;;4.43;;
62848;SDS011;48941;49.516;8.286;2023-04-29T00:50:18;7.45;;;4.07;;
62848;SDS011;48941;49.516;8.286;2023-04-29T00:52:47;5.68;;;4.03;;
62848;SDS011;48941;49.516;8.286;2023-04-29T00:55:15;8.77;;;4.40;;
62848;SDS011;48941;49.516;8.286;2023-04-29T00:57:44;6.40;;;4.20;;
62848;SDS011;48941;49.516;8.286;2023-04-29T01:00:13;7.70;;;4.03;;
62848;SDS011;48941;49.516;8.286;2023-04-29T01:02:42;10.75;;;4.20;;
62848;SDS011;48941;49.516;8.286;2023-04-29T01:05:12;6.55;;;3.95;;
62848;SDS011;48941;49.516;8.286;2023-04-29T01:07:41;7.38;;;3.88;;
62848;SDS011;48941;49.516;8.286;2023-04-29T01:10:18;6.88;;;3.63;;
62848;SDS011;48941;49.516;8.286;2023-04-29T01:12:56;6.25;;;3.95;;
62848;SDS011;48941;49.516;8.286;2023-04-29T01:15:32;6.95;;;4.07;;
62848;SDS011;48941;49.516;8.286;2023-04-29T01:18:07;5.13;;;4.10;;
62848;SDS011;48941;49.516;8.286;2023-04-29T01:20:38;5.27;;;4.30;;
62848;SDS011;48941;49.516;8.286;2023-04-29T01:23:07;5.47;;;4.00;;
62848;SDS011;48941;49.516;8.286;2023-04-29T01:25:36;6.63;;;3.83;;
62848;SDS011;48941;49.516;8.286;2023-04-29T01:28:06;6.55;;;3.35;;
62848;SDS011;48941;49.516;8.286;2023-04-29T01:30:41;7.80;;;3.45;;
62848;SDS011;48941;49.516;8.286;2023-04-29T01:33:18;5.95;;;3.15;;
62848;SDS011;48941;49.516;8.286;2023-04-29T01:35:59;4.88;;;3.50;;
62848;SDS011;48941;49.516;8.286;2023-04-29T01:38:41;6.35;;;3.40;;
62848;SDS011;48941;49.516;8.286;2023-04-29T01:41:17;4.22;;;2.80;;
62848;SDS011;48941;49.516;8.286;2023-04-29T01:43:49;3.78;;;2.83;;
62848;SDS011;48941;49.516;8.286;2023-04-29T01:46:18;2.97;;;2.65;;
62848;SDS011;48941;49.516;8.286;2023-04-29T01:48:46;3.63;;;3.08;;
62848;SDS011;48941;49.516;8.286;2023-04-29T01:51:14;3.53;;;3.20;;
62848;SDS011;48941;49.516;8.286;2023-04-29T01:53:42;4.45;;;3.22;;
62848;SDS011;48941;49.516;8.286;2023-04-29T01:56:09;6.03;;;3.47;;
62848;SDS011;48941;49.516;8.286;2023-04-29T01:58:39;4.07;;;3.20;;
62848;SDS011;48941;49.516;8.286;2023-04-29T02:01:06;3.00;;;2.70;;
62848;SDS011;48941;49.516;8.286;2023-04-29T02:03:35;4.15;;;3.00;;
62848;SDS011;48941;49.516;8.286;2023-04-29T02:06:04;2.90;;;2.63;;
62848;SDS011;48941;49.516;8.286;2023-04-29T02:08:33;5.95;;;2.95;;
62848;SDS011;48941;49.516;8.286;2023-04-29T02:11:00;3.53;;;3.10;;
62848;SDS011;48941;49.516;8.286;2023-04-29T02:13:28;3.65;;;2.88;;
62848;SDS011;48941;49.516;8.286;2023-04-29T02:15:59;9.40;;;3.00;;
62848;SDS011;48941;49.516;8.286;2023-04-29T02:18:34;4.55;;;2.80;;
62848;SDS011;48941;49.516;8.286;2023-04-29T02:21:01;5.43;;;2.63;;
62848;SDS011;48941;49.516;8.286;2023-04-29T02:23:29;6.10;;;2.50;;
62848;SDS011;48941;49.516;8.286;2023-04-29T02:25:57;6.60;;;2.20;;
62848;SDS011;48941;49.516;8.286;2023-04-29T02:28:25;2.63;;;2.22;;
62848;SDS011;48941;49.516;8.286;2023-04-29T02:30:52;1.98;;;1.77;;
62848;SDS011;48941;49.516;8.286;2023-04-29T02:33:22;1.85;;;1.50;;
62848;SDS011;48941;49.516;8.286;2023-04-29T02:35:50;1.63;;;1.52;;
62848;SDS011;48941;49.516;8.286;2023-04-29T02:38:17;4.35;;;1.70;;
62848;SDS011;48941;49.516;8.286;2023-04-29T02:40:45;1.65;;;1.40;;
62848;SDS011;48941;49.516;8.286;2023-04-29T02:43:13;1.50;;;1.40;;
62848;SDS011;48941;49.516;8.286;2023-04-29T02:45:41;2.00;;;1.38;;
62848;SDS011;48941;49.516;8.286;2023-04-29T02:48:08;4.65;;;1.50;;
62848;SDS011;48941;49.516;8.286;2023-04-29T02:50:38;1.85;;;1.40;;
62848;SDS011;48941;49.516;8.286;2023-04-29T02:53:05;1.55;;;1.40;;
62848;SDS011;48941;49.516;8.286;2023-04-29T02:55:33;2.10;;;1.50;;
62848;SDS011;48941;49.516;8.286;2023-04-29T02:58:01;1.52;;;1.40;;
62848;SDS011;48941;49.516;8.286;2023-04-29T03:00:29;1.85;;;1.40;;
62848;SDS011;48941;49.516;8.286;2023-04-29T03:02:56;1.58;;;1.38;;
62848;SDS011;48941;49.516;8.286;2023-04-29T03:05:24;3.42;;;1.60;;
62848;SDS011;48941;49.516;8.286;2023-04-29T03:07:54;2.75;;;1.42;;
62848;SDS011;48941;49.516;8.286;2023-04-29T03:10:22;1.92;;;1.83;;
62848;SDS011;48941;49.516;8.286;2023-04-29T03:12:49;2.10;;;1.58;;
62848;SDS011;48941;49.516;8.286;2023-04-29T03:15:17;2.13;;;1.60;;
62848;SDS011;48941;49.516;8.286;2023-04-29T03:17:45;2.00;;;1.60;;
62848;SDS011;48941;49.516;8.286;2023-04-29T03:20:13;3.95;;;1.52;;
62848;SDS011;48941;49.516;8.286;2023-04-29T03:22:41;1.55;;;1.45;;
62848;SDS011;48941;49.516;8.286;2023-04-29T03:25:10;5.10;;;1.60;;
62848;SDS011;48941;49.516;8.286;2023-04-29T03:27:38;1.77;;;1.60;;
62848;SDS011;48941;49.516;8.286;2023-04-29T03:30:07;1.77;;;1.67;;
62848;SDS011;48941;49.516;8.286;2023-04-29T03:32:35;1.75;;;1.60;;
62848;SDS011;48941;49.516;8.286;2023-04-29T03:35:04;2.05;;;1.80;;
62848;SDS011;48941;49.516;8.286;2023-04-29T03:37:32;1.95;;;1.60;;
62848;SDS011;48941;49.516;8.286;2023-04-29T03:40:00;1.60;;;1.50;;
62848;SDS011;48941;49.516;8.286;2023-04-29T03:42:29;1.98;;;1.60;;
62848;SDS011;48941;49.516;8.286;2023-04-29T03:44:56;1.92;;;1.60;;
62848;SDS011;48941;49.516;8.286;2023-04-29T03:47:24;1.88;;;1.70;;
62848;SDS011;48941;49.516;8.286;2023-04-29T03:49:52;3.33;;;1.67;;
62848;SDS011;48941;49.516;8.286;2023-04-29T03:52:20;1.70;;;1.60;;
62848;SDS011;48941;49.516;8.286;2023-04-29T03:54:48;1.88;;;1.65;;
62848;SDS011;48941;49.516;8.286;2023-04-29T03:57:15;1.73;;;1.63;;
62848;SDS011;48941;49.516;8.286;2023-04-29T03:59:44;1.70;;;1.60;;
62848;SDS011;48941;49.516;8.286;2023-04-29T04:02:16;3.28;;;1.70;;
62848;SDS011;48941;49.516;8.286;2023-04-29T04:04:43;2.53;;;2.33;;
62848;SDS011;48941;49.516;8.286;2023-04-29T04:07:12;2.05;;;1.85;;
62848;SDS011;48941;49.516;8.286;2023-04-29T04:09:39;2.35;;;1.70;;
62848;SDS011;48941;49.516;8.286;2023-04-29T04:12:07;3.67;;;2.22;;
62848;SDS011;48941;49.516;8.286;2023-04-29T04:14:35;1.95;;;1.80;;
62848;SDS011;48941;49.516;8.286;2023-04-29T04:17:04;1.70;;;1.60;;
62848;SDS011;48941;49.516;8.286;2023-04-29T04:19:32;3.88;;;1.63;;
62848;SDS011;48941;49.516;8.286;2023-04-29T04:22:01;3.28;;;1.67;;
62848;SDS011;48941;49.516;8.286;2023-04-29T04:24:29;2.00;;;1.65;;
62848;SDS011;48941;49.516;8.286;2023-04-29T04:26:57;2.42;;;1.80;;
62848;SDS011;48941;49.516;8.286;2023-04-29T04:29:25;2.47;;;1.63;;
62848;SDS011;48941;49.516;8.286;2023-04-29T04:31:53;1.80;;;1.70;;
62848;SDS011;48941;49.516;8.286;2023-04-29T04:34:22;2.13;;;1.80;;
62848;SDS011;48941;49.516;8.286;2023-04-29T04:36:50;3.67;;;1.67;;
62848;SDS011;48941;49.516;8.286;2023-04-29T04:39:17;2.08;;;1.88;;
62848;SDS011;48941;49.516;8.286;2023-04-29T04:41:45;2.97;;;1.92;;
62848;SDS011;48941;49.516;8.286;2023-04-29T04:44:13;6.05;;;1.60;;
62848;SDS011;48941;49.516;8.286;2023-04-29T04:46:41;2.25;;;1.70;;
62848;SDS011;48941;49.516;8.286;2023-04-29T04:49:09;1.70;;;1.60;;
62848;SDS011;48941;49.516;8.286;2023-04-29T04:51:38;2.05;;;1.80;;
62848;SDS011;48941;49.516;8.286;2023-04-29T04:54:06;3.15;;;1.98;;
62848;SDS011;48941;49.516;8.286;2023-04-29T04:56:34;2.88;;;1.83;;
62848;SDS011;48941;49.516;8.286;2023-04-29T04:59:03;2.20;;;2.05;;
62848;SDS011;48941;49.516;8.286;2023-04-29T05:01:30;3.15;;;1.90;;
62848;SDS011;48941;49.516;8.286;2023-04-29T05:03:59;2.03;;;1.92;;
62848;SDS011;48941;49.516;8.286;2023-04-29T05:06:28;1.67;;;1.58;;
62848;SDS011;48941;49.516;8.286;2023-04-29T05:08:57;2.50;;;1.90;;
62848;SDS011;48941;49.516;8.286;2023-04-29T05:11:25;2.28;;;2.08;;
62848;SDS011;48941;49.516;8.286;2023-04-29T05:13:52;2.95;;;2.00;;
62848;SDS011;48941;49.516;8.286;2023-04-29T05:16:20;2.55;;;1.85;;
62848;SDS011;48941;49.516;8.286;2023-04-29T05:18:48;2.17;;;1.98;;
62848;SDS011;48941;49.516;8.286;2023-04-29T05:21:16;3.15;;;1.95;;
62848;SDS011;48941;49.516;8.286;2023-04-29T05:23:44;2.42;;;1.90;;
62848;SDS011;48941;49.516;8.286;2023-04-29T05:26:13;2.70;;;2.35;;
62848;SDS011;48941;49.516;8.286;2023-04-29T05:28:41;3.05;;;2.00;;
62848;SDS011;48941;49.516;8.286;2023-04-29T05:31:08;2.72;;;2.10;;
62848;SDS011;48941;49.516;8.286;2023-04-29T05:33:36;2.55;;;2.08;;
62848;SDS011;48941;49.516;8.286;2023-04-29T05:36:04;2.50;;;2.30;;
62848;SDS011;48941;49.516;8.286;2023-04-29T05:38:33;4.47;;;2.40;;
62848;SDS011;48941;49.516;8.286;2023-04-29T05:41:00;2.92;;;2.50;;
62848;SDS011;48941;49.516;8.286;2023-04-29T05:43:30;3.45;;;3.08;;
62848;SDS011;48941;49.516;8.286;2023-04-29T05:45:58;3.08;;;2.78;;
62848;SDS011;48941;49.516;8.286;2023-04-29T05:48:26;5.25;;;2.97;;
62848;SDS011;48941;49.516;8.286;2023-04-29T05:50:55;3.67;;;2.70;;
62848;SDS011;48941;49.516;8.286;2023-04-29T05:53:22;3.33;;;2.55;;
62848;SDS011;48941;49.516;8.286;2023-04-29T05:55:50;5.20;;;2.90;;
62848;SDS011;48941;49.516;8.286;2023-04-29T05:58:18;3.95;;;2.50;;
62848;SDS011;48941;49.516;8.286;2023-04-29T06:00:47;3.75;;;2.63;;
62848;SDS011;48941;49.516;8.286;2023-04-29T06:03:15;5.35;;;2.70;;
62848;SDS011;48941;49.516;8.286;2023-04-29T06:05:43;2.83;;;2.45;;
62848;SDS011;48941;49.516;8.286;2023-04-29T06:08:11;5.85;;;3.40;;
62848;SDS011;48941;49.516;8.286;2023-04-29T06:10:39;4.47;;;3.17;;
62848;SDS011;48941;49.516;8.286;2023-04-29T06:13:07;5.65;;;3.13;;
62848;SDS011;48941;49.516;8.286;2023-04-29T06:15:35;4.90;;;3.80;;
62848;SDS011;48941;49.516;8.286;2023-04-29T06:18:04;5.90;;;3.90;;
62848;SDS011;48941;49.516;8.286;2023-04-29T06:20:32;7.68;;;4.60;;
62848;SDS011;48941;49.516;8.286;2023-04-29T06:23:02;6.43;;;4.78;;
62848;SDS011;48941;49.516;8.286;2023-04-29T06:25:31;8.00;;;5.07;;
62848;SDS011;48941;49.516;8.286;2023-04-29T06:27:59;9.93;;;4.95;;
62848;SDS011;48941;49.516;8.286;2023-04-29T06:30:27;6.38;;;4.95;;
62848;SDS011;48941;49.516;8.286;2023-04-29T06:32:55;9.02;;;5.40;;
62848;SDS011;48941;49.516;8.286;2023-04-29T06:35:24;7.28;;;4.90;;
62848;SDS011;48941;49.516;8.286;2023-04-29T06:37:52;7.00;;;5.03;;
62848;SDS011;48941;49.516;8.286;2023-04-29T06:40:21;5.85;;;4.50;;
62848;SDS011;48941;49.516;8.286;2023-04-29T06:42:49;6.90;;;4.22;;
62848;SDS011;48941;49.516;8.286;2023-04-29T06:45:17;5.80;;;3.85;;
62848;SDS011;48941;49.516;8.286;2023-04-29T06:47:46;7.10;;;3.78;;
62848;SDS011;48941;49.516;8.286;2023-04-29T06:50:13;5.22;;;3.72;;
62848;SDS011;48941;49.516;8.286;2023-04-29T06:52:43;7.13;;;4.20;;
62848;SDS011;48941;49.516;8.286;2023-04-29T06:55:10;4.30;;;3.70;;
62848;SDS011;48941;49.516;8.286;2023-04-29T06:57:38;5.47;;;3.30;;
62848;SDS011;48941;49.516;8.286;2023-04-29T07:00:06;5.10;;;3.70;;
62848;SDS011;48941;49.516;8.286;2023-04-29T07:02:35;5.85;;;4.45;;
62848;SDS011;48941;49.516;8.286;2023-04-29T07:05:04;7.47;;;4.85;;
62848;SDS011;48941;49.516;8.286;2023-04-29T07:07:33;7.40;;;5.45;;
62848;SDS011;48941;49.516;8.286;2023-04-29T07:10:02;10.52;;;7.50;;
62848;SDS011;48941;49.516;8.286;2023-04-29T07:12:30;14.63;;;9.52;;
62848;SDS011;48941;49.516;8.286;2023-04-29T07:14:58;12.70;;;9.00;;
62848;SDS011;48941;49.516;8.286;2023-04-29T07:17:28;13.70;;;9.60;;
62848;SDS011;48941;49.516;8.286;2023-04-29T07:19:56;13.95;;;9.43;;
62848;SDS011;48941;49.516;8.286;2023-04-29T07:22:23;12.48;;;8.05;;
62848;SDS011;48941;49.516;8.286;2023-04-29T07:24:52;15.48;;;8.80;;
62848;SDS011;48941;49.516;8.286;2023-04-29T07:27:21;13.27;;;7.80;;
62848;SDS011;48941;49.516;8.286;2023-04-29T07:29:49;11.75;;;8.02;;
62848;SDS011;48941;49.516;8.286;2023-04-29T07:32:17;11.82;;;7.50;;
62848;SDS011;48941;49.516;8.286;2023-04-29T07:34:45;9.82;;;6.95;;
62848;SDS011;48941;49.516;8.286;2023-04-29T07:37:13;11.32;;;7.20;;
62848;SDS011;48941;49.516;8.286;2023-04-29T07:39:40;11.18;;;7.35;;
62848;SDS011;48941;49.516;8.286;2023-04-29T07:42:08;13.38;;;6.57;;
62848;SDS011;48941;49.516;8.286;2023-04-29T07:44:38;10.88;;;7.60;;
62848;SDS011;48941;49.516;8.286;2023-04-29T07:47:06;9.90;;;7.05;;
62848;SDS011;48941;49.516;8.286;2023-04-29T07:49:34;11.73;;;6.68;;
62848;SDS011;48941;49.516;8.286;2023-04-29T07:52:01;11.60;;;6.80;;
62848;SDS011;48941;49.516;8.286;2023-04-29T07:54:31;10.77;;;6.97;;
62848;SDS011;48941;49.516;8.286;2023-04-29T07:56:59;10.43;;;7.15;;
62848;SDS011;48941;49.516;8.286;2023-04-29T07:59:28;11.38;;;7.05;;
62848;SDS011;48941;49.516;8.286;2023-04-29T08:01:57;10.20;;;6.32;;
62848;SDS011;48941;49.516;8.286;2023-04-29T08:04:25;9.63;;;6.43;;
62848;SDS011;48941;49.516;8.286;2023-04-29T08:06:54;10.73;;;6.82;;
62848;SDS011;48941;49.516;8.286;2023-04-29T08:09:22;10.18;;;6.22;;
62848;SDS011;48941;49.516;8.286;2023-04-29T08:11:49;10.52;;;6.22;;
62848;SDS011;48941;49.516;8.286;2023-04-29T08:14:17;8.93;;;5.68;;
62848;SDS011;48941;49.516;8.286;2023-04-29T08:16:45;10.15;;;6.25;;
62848;SDS011;48941;49.516;8.286;2023-04-29T08:19:15;10.60;;;6.38;;
62848;SDS011;48941;49.516;8.286;2023-04-29T08:21:42;8.82;;;6.00;;
62848;SDS011;48941;49.516;8.286;2023-04-29T08:24:10;10.90;;;6.00;;
62848;SDS011;48941;49.516;8.286;2023-04-29T08:26:39;9.55;;;6.00;;
62848;SDS011;48941;49.516;8.286;2023-04-29T08:29:07;10.48;;;5.30;;
62848;SDS011;48941;49.516;8.286;2023-04-29T08:31:35;7.80;;;5.22;;
62848;SDS011;48941;49.516;8.286;2023-04-29T08:34:03;9.13;;;5.35;;
62848;SDS011;48941;49.516;8.286;2023-04-29T08:36:32;9.45;;;5.50;;
62848;SDS011;48941;49.516;8.286;2023-04-29T08:39:02;8.15;;;5.43;;
62848;SDS011;48941;49.516;8.286;2023-04-29T08:41:30;8.55;;;5.38;;
62848;SDS011;48941;49.516;8.286;2023-04-29T08:43:59;11.93;;;5.68;;
62848;SDS011;48941;49.516;8.286;2023-04-29T08:46:26;7.32;;;5.40;;
62848;SDS011;48941;49.516;8.286;2023-04-29T08:48:55;11.43;;;5.93;;
62848;SDS011;48941;49.516;8.286;2023-04-29T08:51:24;9.00;;;5.47;;
62848;SDS011;48941;49.516;8.286;2023-04-29T08:53:53;7.57;;;5.60;;
62848;SDS011;48941;49.516;8.286;2023-04-29T08:56:22;7.43;;;5.43;;
62848;SDS011;48941;49.516;8.286;2023-04-29T08:58:53;8.32;;;5.43;;
62848;SDS011;48941;49.516;8.286;2023-04-29T09:01:24;7.80;;;5.03;;
62848;SDS011;48941;49.516;8.286;2023-04-29T09:03:55;6.88;;;4.75;;
62848;SDS011;48941;49.516;8.286;2023-04-29T09:06:31;7.30;;;5.15;;
62848;SDS011;48941;49.516;8.286;2023-04-29T09:09:00;8.73;;;5.25;;
62848;SDS011;48941;49.516;8.286;2023-04-29T09:11:29;7.75;;;5.32;;
62848;SDS011;48941;49.516;8.286;2023-04-29T09:13:58;6.03;;;4.57;;
62848;SDS011;48941;49.516;8.286;2023-04-29T09:16:27;6.68;;;4.85;;
62848;SDS011;48941;49.516;8.286;2023-04-29T09:18:56;8.07;;;4.95;;
62848;SDS011;48941;49.516;8.286;2023-04-29T09:21:24;7.50;;;5.22;;
62848;SDS011;48941;49.516;8.286;2023-04-29T09:23:54;6.72;;;5.13;;
62848;SDS011;48941;49.516;8.286;2023-04-29T09:26:25;6.70;;;4.88;;
62848;SDS011;48941;49.516;8.286;2023-04-29T09:29:04;6.70;;;4.60;;
62848;SDS011;48941;49.516;8.286;2023-04-29T09:31:35;8.60;;;4.75;;
62848;SDS011;48941;49.516;8.286;2023-04-29T09:34:04;7.30;;;5.07;;
62848;SDS011;48941;49.516;8.286;2023-04-29T09:36:36;8.57;;;5.05;;
62848;SDS011;48941;49.516;8.286;2023-04-29T09:39:06;8.05;;;5.28;;
62848;SDS011;48941;49.516;8.286;2023-04-29T09:41:40;8.73;;;5.75;;
62848;SDS011;48941;49.516;8.286;2023-04-29T09:44:09;7.65;;;5.50;;
62848;SDS011;48941;49.516;8.286;2023-04-29T09:46:37;6.72;;;4.82;;
62848;SDS011;48941;49.516;8.286;2023-04-29T09:49:20;8.50;;;5.38;;
62848;SDS011;48941;49.516;8.286;2023-04-29T09:51:53;7.07;;;5.40;;
62848;SDS011;48941;49.516;8.286;2023-04-29T09:54:23;7.13;;;5.20;;
62848;SDS011;48941;49.516;8.286;2023-04-29T09:56:52;6.80;;;5.00;;
62848;SDS011;48941;49.516;8.286;2023-04-29T09:59:21;6.45;;;4.75;;
62848;SDS011;48941;49.516;8.286;2023-04-29T10:01:53;5.95;;;4.55;;
62848;SDS011;48941;49.516;8.286;2023-04-29T10:04:23;22.05;;;14.40;;
62848;SDS011;48941;49.516;8.286;2023-04-29T10:06:52;6.13;;;4.95;;
62848;SDS011;48941;49.516;8.286;2023-04-29T10:09:21;7.20;;;5.03;;
62848;SDS011;48941;49.516;8.286;2023-04-29T10:11:51;5.95;;;4.78;;
62848;SDS011;48941;49.516;8.286;2023-04-29T10:14:21;6.60;;;4.80;;
62848;SDS011;48941;49.516;8.286;2023-04-29T10:16:53;6.65;;;4.88;;
62848;SDS011;48941;49.516;8.286;2023-04-29T10:19:32;6.80;;;4.40;;
62848;SDS011;48941;49.516;8.286;2023-04-29T10:24:33;10.98;;;4.38;;
62848;SDS011;48941;49.516;8.286;2023-04-29T10:27:05;5.88;;;4.28;;
62848;SDS011;48941;49.516;8.286;2023-04-29T10:29:34;4.20;;;3.53;;
62848;SDS011;48941;49.516;8.286;2023-04-29T10:32:03;6.35;;;4.10;;
62848;SDS011;48941;49.516;8.286;2023-04-29T10:34:35;5.40;;;4.25;;
62848;SDS011;48941;49.516;8.286;2023-04-29T10:37:04;4.78;;;4.22;;
62848;SDS011;48941;49.516;8.286;2023-04-29T10:39:35;6.35;;;3.95;;
62848;SDS011;48941;49.516;8.286;2023-04-29T10:42:16;3.85;;;3.45;;
62848;SDS011;48941;49.516;8.286;2023-04-29T10:45:15;4.05;;;3.60;;
62848;SDS011;48941;49.516;8.286;2023-04-29T10:53:28;7.82;;;4.20;;
62848;SDS011;48941;49.516;8.286;2023-04-29T10:55:57;6.30;;;4.75;;
62848;SDS011;48941;49.516;8.286;2023-04-29T10:58:37;6.57;;;4.85;;
62848;SDS011;48941;49.516;8.286;2023-04-29T11:01:09;5.22;;;4.22;;
62848;SDS011;48941;49.516;8.286;2023-04-29T11:03:45;4.82;;;3.60;;
62848;SDS011;48941;49.516;8.286;2023-04-29T11:06:15;6.82;;;3.60;;
62848;SDS011;48941;49.516;8.286;2023-04-29T11:08:43;4.80;;;3.60;;
62848;SDS011;48941;49.516;8.286;2023-04-29T11:11:12;4.00;;;3.50;;
62848;SDS011;48941;49.516;8.286;2023-04-29T11:13:42;4.88;;;3.90;;
62848;SDS011;48941;49.516;8.286;2023-04-29T11:16:13;5.25;;;3.72;;
62848;SDS011;48941;49.516;8.286;2023-04-29T11:21:33;5.95;;;4.63;;
62848;SDS011;48941;49.516;8.286;2023-04-29T11:24:02;10.40;;;4.50;;
62848;SDS011;48941;49.516;8.286;2023-04-29T11:26:32;7.00;;;4.10;;
62848;SDS011;48941;49.516;8.286;2023-04-29T11:29:02;6.40;;;4.50;;
62848;SDS011;48941;49.516;8.286;2023-04-29T11:31:31;5.65;;;4.28;;
62848;SDS011;48941;49.516;8.286;2023-04-29T11:34:00;6.55;;;4.00;;
62848;SDS011;48941;49.516;8.286;2023-04-29T11:36:28;6.28;;;4.47;;
62848;SDS011;48941;49.516;8.286;2023-04-29T11:38:59;5.35;;;4.40;;
62848;SDS011;48941;49.516;8.286;2023-04-29T11:41:27;9.45;;;5.05;;
62848;SDS011;48941;49.516;8.286;2023-04-29T11:43:55;5.40;;;4.25;;
62848;SDS011;48941;49.516;8.286;2023-04-29T11:46:25;6.57;;;4.20;;
62848;SDS011;48941;49.516;8.286;2023-04-29T11:48:56;6.32;;;4.15;;
62848;SDS011;48941;49.516;8.286;2023-04-29T11:51:25;6.18;;;4.20;;
62848;SDS011;48941;49.516;8.286;2023-04-29T11:53:54;4.25;;;3.78;;
62848;SDS011;48941;49.516;8.286;2023-04-29T11:56:24;4.38;;;3.63;;
62848;SDS011;48941;49.516;8.286;2023-04-29T11:58:54;6.03;;;3.58;;
62848;SDS011;48941;49.516;8.286;2023-04-29T12:01:25;3.92;;;3.30;;
62848;SDS011;48941;49.516;8.286;2023-04-29T12:03:56;4.18;;;3.25;;
62848;SDS011;48941;49.516;8.286;2023-04-29T12:06:26;7.45;;;3.13;;
62848;SDS011;48941;49.516;8.286;2023-04-29T12:08:57;4.90;;;3.65;;
62848;SDS011;48941;49.516;8.286;2023-04-29T12:11:25;6.00;;;3.38;;
62848;SDS011;48941;49.516;8.286;2023-04-29T12:13:54;5.03;;;3.22;;
62848;SDS011;48941;49.516;8.286;2023-04-29T12:16:22;4.20;;;3.00;;
62848;SDS011;48941;49.516;8.286;2023-04-29T12:18:52;3.30;;;2.50;;
62848;SDS011;48941;49.516;8.286;2023-04-29T12:21:20;3.15;;;2.78;;
62848;SDS011;48941;49.516;8.286;2023-04-29T12:23:49;3.20;;;2.90;;
62848;SDS011;48941;49.516;8.286;2023-04-29T12:26:18;4.75;;;3.00;;
62848;SDS011;48941;49.516;8.286;2023-04-29T12:28:48;2.90;;;2.60;;
62848;SDS011;48941;49.516;8.286;2023-04-29T12:31:20;3.60;;;2.97;;
62848;SDS011;48941;49.516;8.286;2023-04-29T12:33:52;3.38;;;2.83;;
62848;SDS011;48941;49.516;8.286;2023-04-29T12:36:22;4.80;;;3.63;;
62848;SDS011;48941;49.516;8.286;2023-04-29T12:38:50;5.32;;;3.80;;
62848;SDS011;48941;49.516;8.286;2023-04-29T12:41:34;5.28;;;3.70;;
62848;SDS011;48941;49.516;8.286;2023-04-29T12:46:33;5.13;;;3.67;;
62848;SDS011;48941;49.516;8.286;2023-04-29T12:49:02;3.95;;;3.17;;
62848;SDS011;48941;49.516;8.286;2023-04-29T12:51:31;6.05;;;3.83;;
62848;SDS011;48941;49.516;8.286;2023-04-29T12:53:59;7.88;;;5.20;;
62848;SDS011;48941;49.516;8.286;2023-04-29T12:56:28;6.18;;;4.72;;
62848;SDS011;48941;49.516;8.286;2023-04-29T12:59:03;6.63;;;4.90;;
62848;SDS011;48941;49.516;8.286;2023-04-29T13:01:31;5.75;;;4.53;;
62848;SDS011;48941;49.516;8.286;2023-04-29T13:03:59;6.90;;;4.82;;
62848;SDS011;48941;49.516;8.286;2023-04-29T13:06:28;5.43;;;4.05;;
62848;SDS011;48941;49.516;8.286;2023-04-29T13:08:57;5.82;;;4.30;;
62848;SDS011;48941;49.516;8.286;2023-04-29T13:11:25;4.78;;;3.80;;
62848;SDS011;48941;49.516;8.286;2023-04-29T13:13:59;4.65;;;3.70;;
62848;SDS011;48941;49.516;8.286;2023-04-29T13:16:27;5.13;;;3.88;;
62848;SDS011;48941;49.516;8.286;2023-04-29T13:18:55;4.85;;;3.78;;
62848;SDS011;48941;49.516;8.286;2023-04-29T13:21:44;5.05;;;3.75;;
62848;SDS011;48941;49.516;8.286;2023-04-29T13:24:13;5.70;;;3.92;;
62848;SDS011;48941;49.516;8.286;2023-04-29T13:26:43;5.05;;;4.03;;
62848;SDS011;48941;49.516;8.286;2023-04-29T13:29:11;4.53;;;3.70;;
62848;SDS011;48941;49.516;8.286;2023-04-29T13:31:39;5.28;;;3.97;;
62848;SDS011;48941;49.516;8.286;2023-04-29T13:34:09;4.70;;;3.70;;
62848;SDS011;48941;49.516;8.286;2023-04-29T13:36:37;5.13;;;3.83;;
62848;SDS011;48941;49.516;8.286;2023-04-29T13:39:06;6.82;;;4.20;;
62848;SDS011;48941;49.516;8.286;2023-04-29T13:41:35;5.90;;;3.90;;
62848;SDS011;48941;49.516;8.286;2023-04-29T13:44:09;4.88;;;3.97;;
62848;SDS011;48941;49.516;8.286;2023-04-29T13:46:56;4.85;;;3.90;;
62848;SDS011;48941;49.516;8.286;2023-04-29T13:49:24;5.63;;;3.55;;
62848;SDS011;48941;49.516;8.286;2023-04-29T13:51:55;4.50;;;3.45;;
62848;SDS011;48941;49.516;8.286;2023-04-29T13:54:27;6.03;;;3.25;;
62848;SDS011;48941;49.516;8.286;2023-04-29T13:56:58;4.55;;;3.00;;
62848;SDS011;48941;49.516;8.286;2023-04-29T13:59:29;3.80;;;3.10;;
62848;SDS011;48941;49.516;8.286;2023-04-29T14:02:09;3.53;;;3.10;;
62848;SDS011;48941;49.516;8.286;2023-04-29T14:04:42;3.72;;;3.30;;
62848;SDS011;48941;49.516;8.286;2023-04-29T14:07:10;4.10;;;3.20;;
62848;SDS011;48941;49.516;8.286;2023-04-29T14:09:39;3.30;;;3.00;;
62848;SDS011;48941;49.516;8.286;2023-04-29T14:12:07;4.38;;;3.60;;
62848;SDS011;48941;49.516;8.286;2023-04-29T14:14:34;4.72;;;3.60;;
62848;SDS011;48941;49.516;8.286;2023-04-29T14:17:02;5.07;;;3.70;;
62848;SDS011;48941;49.516;8.286;2023-04-29T14:19:30;3.92;;;3.35;;
62848;SDS011;48941;49.516;8.286;2023-04-29T14:21:58;5.22;;;3.40;;
62848;SDS011;48941;49.516;8.286;2023-04-29T14:24:25;4.70;;;3.10;;
62848;SDS011;48941;49.516;8.286;2023-04-29T14:26:54;5.53;;;3.63;;
62848;SDS011;48941;49.516;8.286;2023-04-29T14:29:23;9.20;;;4.68;;
62848;SDS011;48941;49.516;8.286;2023-04-29T14:31:50;4.10;;;3.33;;
62848;SDS011;48941;49.516;8.286;2023-04-29T14:34:18;4.00;;;3.55;;
62848;SDS011;48941;49.516;8.286;2023-04-29T14:36:46;3.63;;;2.95;;
62848;SDS011;48941;49.516;8.286;2023-04-29T14:39:14;2.63;;;2.42;;
62848;SDS011;48941;49.516;8.286;2023-04-29T14:41:42;3.08;;;2.63;;
62848;SDS011;48941;49.516;8.286;2023-04-29T14:44:11;3.40;;;2.80;;
62848;SDS011;48941;49.516;8.286;2023-04-29T14:46:39;3.47;;;3.17;;
62848;SDS011;48941;49.516;8.286;2023-04-29T14:49:07;3.35;;;2.80;;
62848;SDS011;48941;49.516;8.286;2023-04-29T14:51:35;3.70;;;3.22;;
62848;SDS011;48941;49.516;8.286;2023-04-29T14:54:03;4.47;;;3.60;;
62848;SDS011;48941;49.516;8.286;2023-04-29T14:56:31;3.88;;;2.88;;
62848;SDS011;48941;49.516;8.286;2023-04-29T14:58:58;3.38;;;3.08;;
62848;SDS011;48941;49.516;8.286;2023-04-29T15:01:28;4.18;;;3.15;;
62848;SDS011;48941;49.516;8.286;2023-04-29T15:03:57;4.60;;;3.65;;
62848;SDS011;48941;49.516;8.286;2023-04-29T15:06:26;4.35;;;3.33;;
62848;SDS011;48941;49.516;8.286;2023-04-29T15:08:54;4.38;;;3.40;;
62848;SDS011;48941;49.516;8.286;2023-04-29T15:11:22;4.88;;;3.83;;